Impacts TAF Board
For situational awareness. Not to be used for flight planning purposes.
IDs:

KTOI - Troy Muni, AL, US

Issued at 2341 UTC 05 Dec 2020
Updated at 0109 UTC 06 Dec 2020
Potential Impact None Slight Moderate High
Time0053Z 06/02Z 06/03Z 06/04Z 06/05Z 06/06Z 06/07Z 06/08Z 06/09Z 06/10Z 06/11Z 06/12Z 06/13Z 06/14Z>>
Type OBS PRVL PRVL PRVL PRVL PRVL PRVL PRVL PRVL PRVL PRVL PRVL PRVL PRVL
VIS 10 >6 >6 >6 >6 >6 >6 >6 >6 >6 >6 >6 >6 >6
CIG -- -- -- -- -- -- -- -- -- -- -- -- -- --
Cover CLR FEW FEW FEW FEW FEW FEW FEW FEW FEW FEW FEW FEW FEW
FltCat VFR VFR VFR VFR VFR VFR VFR VFR VFR VFR VFR VFR VFR VFR
WX -- -- -- -- -- -- -- -- -- -- -- -- -- --
WDir VRB VRB VRB VRB VRB VRB VRB VRB VRB VRB VRB VRB VRB VRB
WSpd 0 0 0 0 0 0 0 0 0 0 0 0 0 0
WGst -- -- -- -- -- -- -- -- -- -- -- -- -- --
Raw TAF
KTOI 052341Z 0600/0624 00000KT P6SM FEW250
  FM061500 24005KT P6SM BKN015
  PROB30 0621/0624 4SM -SHRA BR OVC050


Raw METAR
KTOI 060053Z AUTO 00000KT 10SM CLR 08/06 A3012 RMK AO2 SLP199 T00830056
KTOI 052353Z AUTO 00000KT 10SM CLR 09/05 A3011 RMK AO2 SLP196 T00940050 10172 20089 53001
KTOI 052253Z AUTO 00000KT 10SM CLR 12/05 A3010 RMK AO2 SLP193 T01170050

METAR Board
Radar Display
Forecast Discussion
For situational awareness. Not to be used for flight planning purposes.